Time;durP1;ratioP1;P1;durP2;ratioP2;P2;SDS_P1;SDS_P2;PMS_P1;PMS_P2;Temp;Humidity;BMP_temperature;BMP_pressure;BME280_temperature;BME280_humidity;BME280_pressure;Samples;Min_cycle;Max_cycle;Signal;HPM_P1;HPM_P2
2023/06/18 00:01:29;;;;;;;34.50;23.47;;;15.00;99.90;;;;;;5185797;28;20520;-44
2023/06/18 00:03:59;;;;;;;30.47;19.43;;;15.00;99.90;;;;;;5174978;28;20624;-44
2023/06/18 00:06:30;;;;;;;28.67;19.30;;;15.00;99.90;;;;;;5203163;28;20187;-44
2023/06/18 00:09:01;;;;;;;31.63;21.20;;;14.90;99.90;;;;;;5199387;28;20208;-45
2023/06/18 00:11:33;;;;;;;25.33;19.10;;;14.90;99.90;;;;;;5195811;28;20626;-45
2023/06/18 00:14:03;;;;;;;27.80;19.73;;;14.80;99.90;;;;;;5191533;28;20588;-44
2023/06/18 00:16:34;;;;;;;24.70;18.20;;;14.80;99.90;;;;;;5207423;28;20478;-44
2023/06/18 00:19:05;;;;;;;28.53;17.30;;;14.80;99.90;;;;;;5191311;28;20270;-44
2023/06/18 00:21:37;;;;;;;25.30;19.20;;;14.80;99.90;;;;;;5204578;28;20188;-43
2023/06/18 00:24:08;;;;;;;25.37;18.27;;;14.80;99.90;;;;;;5200901;28;20446;-44
2023/06/18 00:26:38;;;;;;;21.47;16.77;;;14.80;99.90;;;;;;5183011;28;20462;-45
2023/06/18 00:29:10;;;;;;;32.00;21.50;;;14.80;99.90;;;;;;5185454;28;20200;-43
2023/06/18 00:31:41;;;;;;;28.27;20.20;;;14.80;99.90;;;;;;5207688;28;20208;-43
2023/06/18 00:34:12;;;;;;;31.03;20.43;;;14.80;99.90;;;;;;5205315;28;20410;-44
2023/06/18 00:36:43;;;;;;;24.93;19.27;;;14.80;99.90;;;;;;5189701;28;20200;-44
2023/06/18 00:39:14;;;;;;;31.60;22.50;;;14.80;99.90;;;;;;5187298;28;20591;-44
2023/06/18 00:41:46;;;;;;;26.07;19.37;;;14.80;99.90;;;;;;5192178;28;20183;-44
2023/06/18 00:44:21;;;;;;;22.10;18.77;;;14.80;99.90;;;;;;5188968;28;20188;-44
2023/06/18 00:46:56;;;;;;;27.30;19.17;;;14.80;99.90;;;;;;5201689;28;20468;-44
2023/06/18 00:49:27;;;;;;;25.77;18.90;;;14.70;99.90;;;;;;5187971;28;20549;-45
2023/06/18 00:51:58;;;;;;;22.57;19.00;;;14.70;99.90;;;;;;5200382;28;20785;-44
2023/06/18 00:54:34;;;;;;;23.50;19.37;;;14.70;99.90;;;;;;5197609;28;20485;-44
2023/06/18 00:57:08;;;;;;;28.77;19.70;;;14.70;99.90;;;;;;5181414;28;20466;-44
2023/06/18 00:59:42;;;;;;;21.93;18.50;;;14.70;99.90;;;;;;5192839;28;20924;-43
2023/06/18 01:02:12;;;;;;;18.80;15.90;;;14.70;99.90;;;;;;5188634;28;20470;-44
2023/06/18 01:04:45;;;;;;;19.33;16.23;;;14.60;99.90;;;;;;5205917;28;20808;-44
2023/06/18 01:07:15;;;;;;;19.40;16.13;;;14.60;99.90;;;;;;5208244;28;20603;-45
2023/06/18 01:09:53;;;;;;;25.30;19.67;;;14.50;99.90;;;;;;5210063;28;20462;-43
2023/06/18 01:12:30;;;;;;;34.00;20.70;;;14.50;99.90;;;;;;5208563;28;20237;-45
2023/06/18 01:15:01;;;;;;;24.10;19.73;;;14.50;99.90;;;;;;5192732;28;20461;-46
2023/06/18 01:17:37;;;;;;;25.07;18.67;;;14.50;99.90;;;;;;5197888;28;20939;-44
2023/06/18 01:20:10;;;;;;;29.83;22.27;;;14.50;99.90;;;;;;5179074;28;20541;-44
2023/06/18 01:22:44;;;;;;;23.67;20.17;;;14.50;99.90;;;;;;5205252;28;20414;-45
2023/06/18 01:25:17;;;;;;;28.70;20.13;;;14.50;99.90;;;;;;5202403;28;20425;-45
2023/06/18 01:27:50;;;;;;;25.30;20.50;;;14.50;99.90;;;;;;5191438;28;20978;-44
2023/06/18 01:30:21;;;;;;;27.93;21.30;;;14.50;99.90;;;;;;5204290;28;20546;-44
2023/06/18 01:32:54;;;;;;;27.47;21.53;;;14.40;99.90;;;;;;5187061;28;20477;-45
2023/06/18 01:35:25;;;;;;;25.83;20.30;;;14.50;99.90;;;;;;5194431;28;20521;-44
2023/06/18 01:38:23;;;;;;;23.30;19.20;;;14.50;99.90;;;;;;5188802;28;20549;-43
2023/06/18 01:40:57;;;;;;;32.73;22.60;;;14.40;99.90;;;;;;5204681;28;20440;-43
2023/06/18 01:43:38;;;;;;;30.73;22.70;;;14.40;99.90;;;;;;5203728;28;20422;-43
2023/06/18 01:46:12;;;;;;;29.30;20.20;;;14.40;99.90;;;;;;5161107;28;20489;-44
2023/06/18 01:48:51;;;;;;;24.70;18.63;;;14.40;99.90;;;;;;5205268;28;20501;-43
2023/06/18 01:51:23;;;;;;;24.20;20.73;;;14.40;99.90;;;;;;5205617;28;20429;-44
2023/06/18 01:53:57;;;;;;;29.90;21.10;;;14.30;99.90;;;;;;5209940;28;20430;-44
2023/06/18 01:56:28;;;;;;;24.97;20.60;;;14.30;99.90;;;;;;5191612;28;20430;-44
2023/06/18 01:58:59;;;;;;;19.33;16.10;;;14.30;99.90;;;;;;5185503;28;20463;-44
2023/06/18 02:01:31;;;;;;;19.63;17.47;;;14.30;99.90;;;;;;5203030;28;20793;-43
2023/06/18 02:04:02;;;;;;;18.37;15.23;;;14.30;99.90;;;;;;5199580;28;20246;-43
2023/06/18 02:06:33;;;;;;;21.73;17.37;;;14.20;99.90;;;;;;5209583;28;20457;-44
2023/06/18 02:09:04;;;;;;;29.67;22.47;;;14.20;99.90;;;;;;5188179;28;20492;-44
2023/06/18 02:11:35;;;;;;;31.40;20.80;;;14.20;99.90;;;;;;5174493;28;20466;-44
2023/06/18 02:14:05;;;;;;;30.60;22.63;;;14.20;99.90;;;;;;5188578;28;20185;-44
2023/06/18 02:16:36;;;;;;;27.70;22.70;;;14.20;99.90;;;;;;5204782;28;20196;-44
2023/06/18 02:19:07;;;;;;;35.93;21.60;;;14.20;99.90;;;;;;5180554;28;20229;-44
2023/06/18 02:21:38;;;;;;;37.57;24.47;;;14.20;99.90;;;;;;5209719;28;20191;-44
2023/06/18 02:24:09;;;;;;;27.53;22.33;;;14.20;99.90;;;;;;5208375;28;20613;-44
2023/06/18 02:26:40;;;;;;;26.70;21.47;;;14.20;99.90;;;;;;5177699;28;20226;-43
2023/06/18 02:29:10;;;;;;;27.43;21.27;;;14.20;99.90;;;;;;5181482;28;20467;-44
2023/06/18 02:31:41;;;;;;;29.57;21.10;;;14.20;99.90;;;;;;5204704;28;20860;-46
2023/06/18 02:34:12;;;;;;;21.80;18.80;;;14.20;99.90;;;;;;5184105;28;20184;-43
2023/06/18 02:36:44;;;;;;;22.53;17.77;;;14.20;99.90;;;;;;5183960;28;20203;-44
2023/06/18 02:39:16;;;;;;;24.63;17.60;;;14.20;99.90;;;;;;5190002;28;20203;-44
2023/06/18 02:41:46;;;;;;;24.10;17.27;;;14.10;99.90;;;;;;5188348;28;20472;-46
2023/06/18 02:44:18;;;;;;;22.83;17.60;;;14.10;99.90;;;;;;5188621;28;20470;-44
2023/06/18 02:46:48;;;;;;;28.73;20.73;;;14.10;99.90;;;;;;5185306;28;20204;-44
2023/06/18 02:49:20;;;;;;;24.80;20.97;;;14.10;99.90;;;;;;5177601;28;20469;-46
2023/06/18 02:51:51;;;;;;;24.20;20.53;;;14.10;99.90;;;;;;5182725;28;20207;-44
2023/06/18 02:54:22;;;;;;;26.57;19.57;;;14.20;99.90;;;;;;5162935;28;20446;-44
2023/06/18 02:56:52;;;;;;;24.90;21.03;;;14.10;99.90;;;;;;5182813;28;20295;-44
2023/06/18 02:59:23;;;;;;;26.37;20.10;;;14.10;99.90;;;;;;5201952;28;20230;-44
2023/06/18 03:01:54;;;;;;;26.90;22.27;;;14.20;99.90;;;;;;5200540;28;20262;-44
2023/06/18 03:04:25;;;;;;;28.70;21.97;;;14.20;99.90;;;;;;5182827;28;20195;-43
2023/06/18 03:06:59;;;;;;;28.10;21.63;;;14.20;99.90;;;;;;5201331;28;20290;-45
2023/06/18 03:09:30;;;;;;;29.00;22.27;;;14.20;99.90;;;;;;5199376;28;20267;-43
2023/06/18 03:12:01;;;;;;;29.73;21.60;;;14.20;99.90;;;;;;5200109;28;20474;-43
2023/06/18 03:14:31;;;;;;;28.80;21.67;;;14.20;99.90;;;;;;5208049;28;20277;-43
2023/06/18 03:17:02;;;;;;;25.60;21.53;;;14.20;99.90;;;;;;5208661;28;20211;-43
2023/06/18 03:19:34;;;;;;;30.20;21.90;;;14.20;99.90;;;;;;5176677;28;20192;-44
2023/06/18 03:22:05;;;;;;;33.03;23.80;;;14.20;99.90;;;;;;5204587;28;20438;-44
2023/06/18 03:24:38;;;;;;;24.17;20.47;;;14.20;99.90;;;;;;5181357;28;20443;-43
2023/06/18 03:27:08;;;;;;;23.73;19.87;;;14.30;99.90;;;;;;5159058;28;21067;-45
2023/06/18 03:29:40;;;;;;;26.40;21.30;;;14.30;99.90;;;;;;5181046;28;20502;-44
2023/06/18 03:32:11;;;;;;;26.50;20.60;;;14.30;99.90;;;;;;5202580;28;20180;-45
2023/06/18 03:34:42;;;;;;;25.90;20.20;;;14.40;99.90;;;;;;5188191;28;20430;-46
2023/06/18 03:37:13;;;;;;;28.37;19.00;;;14.40;99.90;;;;;;5202501;28;20238;-46
2023/06/18 03:39:44;;;;;;;25.60;20.50;;;14.50;99.90;;;;;;5200458;28;20210;-46
2023/06/18 03:42:15;;;;;;;34.03;21.10;;;14.50;99.90;;;;;;5182724;28;20188;-47
2023/06/18 03:44:46;;;;;;;29.93;19.37;;;14.50;99.90;;;;;;5197296;28;20496;-45
2023/06/18 03:47:17;;;;;;;27.00;21.03;;;14.60;99.90;;;;;;5200153;28;20272;-45
2023/06/18 03:49:48;;;;;;;29.67;20.77;;;14.60;99.90;;;;;;5196770;28;20695;-45
2023/06/18 03:52:19;;;;;;;25.83;20.90;;;14.60;99.90;;;;;;5180151;28;20434;-44
2023/06/18 03:54:50;;;;;;;27.73;21.53;;;14.70;99.90;;;;;;5164302;28;20184;-45
2023/06/18 03:57:21;;;;;;;25.10;20.57;;;14.80;99.90;;;;;;5200007;28;20461;-45
2023/06/18 03:59:52;;;;;;;22.77;19.20;;;14.90;99.90;;;;;;5180034;28;20184;-45
2023/06/18 04:02:23;;;;;;;23.77;18.97;;;15.00;99.90;;;;;;5202570;28;20223;-46
2023/06/18 04:04:53;;;;;;;23.93;18.43;;;15.10;99.90;;;;;;5192698;28;20184;-46
2023/06/18 04:07:24;;;;;;;23.40;17.83;;;15.20;99.90;;;;;;5182085;28;20485;-45
2023/06/18 04:09:55;;;;;;;23.23;17.87;;;15.30;99.90;;;;;;5211428;28;20679;-45
2023/06/18 04:12:27;;;;;;;24.40;19.70;;;15.40;99.90;;;;;;5196295;28;20263;-46
2023/06/18 04:14:57;;;;;;;28.40;19.60;;;15.50;99.90;;;;;;5202483;28;20172;-45
2023/06/18 04:17:28;;;;;;;25.20;18.57;;;15.70;99.90;;;;;;5203134;28;20533;-46
2023/06/18 04:20:00;;;;;;;21.43;18.00;;;15.80;99.90;;;;;;5188441;28;20188;-46
2023/06/18 04:22:31;;;;;;;24.83;17.83;;;16.00;99.90;;;;;;5199684;28;20210;-45
2023/06/18 04:25:02;;;;;;;20.00;16.97;;;16.20;99.90;;;;;;5206884;28;20552;-45
2023/06/18 04:27:33;;;;;;;20.40;17.23;;;16.50;99.90;;;;;;5191349;28;20222;-45
2023/06/18 04:30:05;;;;;;;23.80;16.30;;;16.70;99.90;;;;;;5212386;28;20457;-46
2023/06/18 04:32:36;;;;;;;20.13;16.87;;;16.80;99.90;;;;;;5196105;28;20185;-46
2023/06/18 04:35:07;;;;;;;24.50;17.83;;;17.10;99.90;;;;;;5208496;28;20463;-46
2023/06/18 04:37:38;;;;;;;23.30;17.60;;;17.40;99.90;;;;;;5214248;28;20210;-45
2023/06/18 04:40:10;;;;;;;21.50;16.70;;;17.70;99.90;;;;;;5198210;28;20540;-44
2023/06/18 04:42:41;;;;;;;20.73;17.40;;;18.20;99.90;;;;;;5193302;28;20213;-44
2023/06/18 04:45:12;;;;;;;22.00;16.40;;;18.60;99.90;;;;;;5207660;28;20426;-44
2023/06/18 04:47:43;;;;;;;23.73;17.23;;;19.20;99.90;;;;;;5184676;28;20459;-44
2023/06/18 04:50:14;;;;;;;18.87;15.03;;;19.80;99.90;;;;;;5211179;28;20278;-45
2023/06/18 04:52:45;;;;;;;27.60;17.17;;;20.30;99.90;;;;;;5188655;28;20214;-44
2023/06/18 04:55:16;;;;;;;19.20;14.80;;;20.70;99.90;;;;;;5190945;28;20465;-44
2023/06/18 04:57:47;;;;;;;16.03;14.20;;;21.20;99.90;;;;;;5198403;28;20994;-45
2023/06/18 05:00:19;;;;;;;20.13;15.57;;;21.80;99.90;;;;;;5193236;28;20434;-44
2023/06/18 05:02:50;;;;;;;18.63;15.00;;;22.30;99.90;;;;;;5209229;28;20214;-45
2023/06/18 05:05:24;;;;;;;18.87;13.60;;;22.80;99.90;;;;;;5192285;28;20422;-44
2023/06/18 05:07:55;;;;;;;14.30;12.40;;;23.60;99.90;;;;;;5190251;28;20199;-44
2023/06/18 05:10:25;;;;;;;16.07;13.43;;;24.70;99.90;;;;;;5203013;28;20473;-45
2023/06/18 05:12:56;;;;;;;12.40;11.00;;;26.10;99.90;;;;;;5179802;28;20253;-44
2023/06/18 05:15:27;;;;;;;18.40;11.73;;;27.40;99.90;;;;;;5201388;28;20232;-43
2023/06/18 05:17:58;;;;;;;15.83;12.07;;;29.00;92.40;;;;;;5187980;28;20751;-44
2023/06/18 05:20:29;;;;;;;13.17;9.57;;;30.20;79.90;;;;;;5200106;28;20183;-44
2023/06/18 05:22:59;;;;;;;11.10;8.90;;;30.90;69.80;;;;;;5195378;28;20201;-43
2023/06/18 05:25:30;;;;;;;9.60;8.67;;;31.20;63.70;;;;;;5185564;28;20183;-44
2023/06/18 05:28:01;;;;;;;11.87;10.47;;;31.50;60.10;;;;;;5198212;28;20208;-44
2023/06/18 05:30:31;;;;;;;15.02;10.77;;;32.20;56.70;;;;;;5178871;28;20219;-45
2023/06/18 05:33:02;;;;;;;12.45;9.90;;;32.90;51.80;;;;;;5203682;28;20270;-45
2023/06/18 05:35:33;;;;;;;16.08;11.43;;;33.40;49.90;;;;;;5209557;28;20180;-44
2023/06/18 05:38:04;;;;;;;11.73;10.02;;;34.00;47.60;;;;;;5192998;28;20191;-43
2023/06/18 05:40:35;;;;;;;11.43;10.00;;;34.60;46.30;;;;;;5189905;28;20191;-43
2023/06/18 05:43:05;;;;;;;12.20;10.00;;;35.20;44.10;;;;;;5200854;28;20643;-43
2023/06/18 05:45:38;;;;;;;8.82;8.02;;;35.50;42.50;;;;;;5186466;28;20251;-43
2023/06/18 05:48:09;;;;;;;10.00;9.07;;;35.50;41.20;;;;;;5182841;28;20196;-43
2023/06/18 05:50:41;;;;;;;10.02;9.02;;;35.90;41.10;;;;;;5216542;28;20204;-43
2023/06/18 05:53:12;;;;;;;9.75;8.52;;;36.30;39.20;;;;;;5185781;28;20175;-43
2023/06/18 05:55:42;;;;;;;8.25;7.47;;;36.60;39.10;;;;;;5196199;28;20209;-44
2023/06/18 05:58:13;;;;;;;13.55;8.63;;;36.90;38.60;;;;;;5212615;28;20195;-44
2023/06/18 06:00:44;;;;;;;7.78;7.10;;;37.40;37.40;;;;;;5183891;28;20590;-43
2023/06/18 06:03:15;;;;;;;7.30;6.60;;;37.70;36.40;;;;;;5204500;28;20183;-44
2023/06/18 06:05:46;;;;;;;9.15;8.32;;;37.80;35.70;;;;;;5191031;28;20184;-44
2023/06/18 06:08:17;;;;;;;8.50;7.63;;;38.20;32.90;;;;;;5207317;28;20230;-43
2023/06/18 06:10:48;;;;;;;7.38;6.65;;;38.00;33.30;;;;;;5184191;28;20215;-43
2023/06/18 06:13:19;;;;;;;8.35;6.85;;;37.80;33.70;;;;;;5211293;28;20721;-43
2023/06/18 06:15:50;;;;;;;6.88;6.38;;;37.80;32.90;;;;;;5209225;28;20175;-43
2023/06/18 06:18:21;;;;;;;5.75;5.15;;;38.30;32.30;;;;;;5181512;28;20572;-43
2023/06/18 06:20:52;;;;;;;7.30;5.55;;;38.30;32.40;;;;;;5180730;28;20192;-44
2023/06/18 06:23:22;;;;;;;6.00;5.50;;;38.40;32.40;;;;;;5211591;28;20171;-45
2023/06/18 06:25:53;;;;;;;5.22;4.88;;;38.70;31.30;;;;;;5205157;28;20229;-42
2023/06/18 06:28:24;;;;;;;5.32;4.82;;;38.90;31.00;;;;;;5207725;28;20248;-44
2023/06/18 06:30:55;;;;;;;5.95;5.45;;;38.90;30.50;;;;;;5210779;28;20187;-43
2023/06/18 06:33:26;;;;;;;3.70;3.47;;;39.30;30.00;;;;;;5194000;28;20179;-43
2023/06/18 06:35:56;;;;;;;4.63;4.22;;;38.90;30.00;;;;;;5189769;28;20551;-44
2023/06/18 06:38:27;;;;;;;4.88;4.47;;;39.30;30.00;;;;;;5202183;28;20212;-44
2023/06/18 06:40:58;;;;;;;6.32;4.88;;;39.30;30.40;;;;;;5189832;28;20187;-45
2023/06/18 06:43:29;;;;;;;6.90;6.30;;;39.30;30.00;;;;;;5197839;28;20269;-45
2023/06/18 06:46:00;;;;;;;7.18;6.57;;;39.30;29.50;;;;;;5202180;28;20211;-44
2023/06/18 06:48:30;;;;;;;6.30;5.78;;;38.00;30.80;;;;;;5189238;28;20709;-45
2023/06/18 06:51:01;;;;;;;4.10;3.90;;;37.70;31.40;;;;;;5198933;28;20168;-45
2023/06/18 06:53:32;;;;;;;6.63;6.05;;;38.20;31.20;;;;;;5183066;28;20180;-45
2023/06/18 06:56:03;;;;;;;5.50;5.10;;;38.80;30.30;;;;;;5207618;28;20683;-45
2023/06/18 06:58:33;;;;;;;6.30;5.15;;;39.10;29.80;;;;;;5179697;28;20199;-45
2023/06/18 07:01:04;;;;;;;4.45;4.22;;;39.00;29.10;;;;;;5195690;28;20195;-45
2023/06/18 07:03:35;;;;;;;4.35;3.95;;;38.30;30.00;;;;;;5189959;28;20199;-46
2023/06/18 07:06:06;;;;;;;5.75;4.60;;;38.70;30.00;;;;;;5214522;28;20182;-45
2023/06/18 07:08:37;;;;;;;5.63;5.18;;;39.20;29.80;;;;;;5197780;28;20203;-44
2023/06/18 07:11:09;;;;;;;4.47;3.60;;;39.40;29.20;;;;;;5206393;28;20246;-45
2023/06/18 07:13:40;;;;;;;3.90;3.70;;;39.40;29.40;;;;;;5197647;28;20188;-44
2023/06/18 07:16:10;;;;;;;4.82;4.43;;;38.90;29.60;;;;;;5202364;28;20714;-45
2023/06/18 07:18:41;;;;;;;5.05;4.30;;;38.80;29.80;;;;;;5195424;28;20250;-45
2023/06/18 07:21:11;;;;;;;6.47;4.85;;;39.10;29.80;;;;;;5201428;28;20572;-46
2023/06/18 07:23:42;;;;;;;6.00;5.18;;;39.40;29.60;;;;;;5199060;28;20198;-45
2023/06/18 07:26:14;;;;;;;4.40;4.10;;;39.40;29.50;;;;;;5189709;28;20183;-46
2023/06/18 07:28:45;;;;;;;5.45;4.28;;;39.80;29.40;;;;;;5205077;28;20250;-45
2023/06/18 07:31:15;;;;;;;5.70;4.47;;;40.50;29.00;;;;;;5205243;28;20203;-46
2023/06/18 07:33:46;;;;;;;4.25;3.88;;;41.30;28.00;;;;;;5198942;28;20230;-44
2023/06/18 07:36:17;;;;;;;11.15;5.50;;;41.00;27.90;;;;;;5200247;28;20180;-45
2023/06/18 07:38:48;;;;;;;4.28;4.07;;;41.00;27.80;;;;;;5206177;28;20198;-45
2023/06/18 07:41:19;;;;;;;4.50;4.10;;;41.10;27.90;;;;;;5189131;28;20183;-45
2023/06/18 07:43:49;;;;;;;4.65;4.35;;;41.40;27.60;;;;;;5192612;28;20194;-45
2023/06/18 07:46:20;;;;;;;4.13;3.92;;;41.10;27.20;;;;;;5203478;28;20195;-46
2023/06/18 07:48:51;;;;;;;5.03;4.28;;;40.60;27.90;;;;;;5201191;28;20199;-45
2023/06/18 07:51:22;;;;;;;5.47;5.03;;;40.60;28.10;;;;;;5205032;28;20679;-45
2023/06/18 07:53:52;;;;;;;4.75;4.43;;;40.30;27.90;;;;;;5203827;28;20199;-46
2023/06/18 07:56:26;;;;;;;3.88;3.67;;;40.30;27.80;;;;;;5184495;28;20197;-45
2023/06/18 07:58:57;;;;;;;4.57;4.18;;;40.30;28.00;;;;;;5192837;28;20678;-45
2023/06/18 08:01:27;;;;;;;6.43;4.20;;;39.80;28.20;;;;;;5202791;28;20183;-45
2023/06/18 08:03:58;;;;;;;4.45;4.15;;;40.10;27.90;;;;;;5206672;28;20186;-44
2023/06/18 08:06:29;;;;;;;4.78;4.38;;;40.40;27.60;;;;;;5208139;28;20648;-44
2023/06/18 08:09:00;;;;;;;4.85;4.40;;;40.60;27.80;;;;;;5204631;28;20219;-44
2023/06/18 08:11:31;;;;;;;4.72;4.30;;;40.60;27.60;;;;;;5176343;28;20194;-44
2023/06/18 08:14:03;;;;;;;3.85;3.65;;;41.00;26.80;;;;;;5199177;28;20179;-44
2023/06/18 08:16:34;;;;;;;4.18;3.97;;;40.50;27.20;;;;;;5196740;28;20207;-45
2023/06/18 08:19:05;;;;;;;5.55;5.05;;;40.60;27.40;;;;;;5204206;28;20594;-45
2023/06/18 08:21:35;;;;;;;6.03;3.88;;;40.20;26.90;;;;;;5198369;28;20184;-45
2023/06/18 08:24:08;;;;;;;5.35;4.28;;;40.60;27.50;;;;;;5190072;28;20822;-44
2023/06/18 08:26:38;;;;;;;4.03;3.72;;;41.00;26.50;;;;;;5189817;28;20687;-46
2023/06/18 08:29:09;;;;;;;3.33;3.10;;;40.60;25.80;;;;;;5201920;28;20205;-46
2023/06/18 08:31:41;;;;;;;3.90;3.38;;;40.00;27.10;;;;;;5201999;28;20183;-45
2023/06/18 08:34:11;;;;;;;5.68;4.15;;;40.30;27.10;;;;;;5209035;28;20202;-46
2023/06/18 08:36:46;;;;;;;5.07;3.92;;;40.30;26.70;;;;;;5192558;28;20194;-43
2023/06/18 08:39:17;;;;;;;3.47;3.15;;;40.50;27.10;;;;;;5176434;28;20194;-44
2023/06/18 08:41:51;;;;;;;4.32;4.00;;;40.80;26.70;;;;;;5209684;28;20191;-44
2023/06/18 08:44:23;;;;;;;3.35;3.15;;;40.30;26.80;;;;;;5204072;28;20197;-45
2023/06/18 08:47:00;;;;;;;3.38;3.17;;;40.10;26.60;;;;;;5200465;28;20207;-45
2023/06/18 08:49:32;;;;;;;4.88;4.57;;;39.70;26.70;;;;;;5179382;28;20786;-45
2023/06/18 08:52:07;;;;;;;3.60;3.40;;;39.50;27.50;;;;;;5206988;28;20175;-46
2023/06/18 08:54:39;;;;;;;4.03;3.72;;;37.20;29.10;;;;;;5194125;28;20179;-45
2023/06/18 08:57:33;;;;;;;3.20;3.10;;;34.70;31.60;;;;;;5182824;28;20541;-45
2023/06/18 09:00:04;;;;;;;4.80;3.42;;;32.10;33.90;;;;;;5176545;28;20176;-44
2023/06/18 09:02:35;;;;;;;3.50;3.30;;;30.10;37.00;;;;;;5209760;28;20179;-44
2023/06/18 09:05:07;;;;;;;3.00;2.90;;;28.80;38.70;;;;;;5200073;28;20202;-45
2023/06/18 09:07:38;;;;;;;3.70;3.50;;;28.20;40.50;;;;;;5180287;28;20203;-45
2023/06/18 09:10:10;;;;;;;5.80;3.97;;;28.00;41.20;;;;;;5208303;28;20973;-45
2023/06/18 09:12:41;;;;;;;4.20;3.90;;;28.10;41.70;;;;;;5198476;28;20181;-46
2023/06/18 09:15:13;;;;;;;14.10;3.80;;;28.00;41.30;;;;;;5206411;28;20429;-44
2023/06/18 09:17:53;;;;;;;4.03;3.73;;;27.60;42.10;;;;;;5188905;28;20203;-45
2023/06/18 09:20:24;;;;;;;5.20;4.80;;;27.30;42.80;;;;;;5207683;28;20504;-46
2023/06/18 09:22:55;;;;;;;4.40;4.10;;;26.80;43.20;;;;;;5189946;28;20430;-44
2023/06/18 09:25:25;;;;;;;6.03;4.37;;;26.60;43.90;;;;;;5191846;28;20438;-45
2023/06/18 09:27:58;;;;;;;3.90;3.70;;;26.20;45.00;;;;;;5208862;28;20199;-46
2023/06/18 09:30:29;;;;;;;4.80;4.40;;;26.30;45.10;;;;;;5197661;28;20200;-45
2023/06/18 09:33:00;;;;;;;10.20;7.07;;;26.50;45.20;;;;;;5190802;28;20457;-45
2023/06/18 09:35:32;;;;;;;4.07;3.77;;;26.60;45.10;;;;;;5205241;28;20446;-44
2023/06/18 09:38:09;;;;;;;4.20;3.90;;;26.40;44.90;;;;;;5187554;28;20998;-46
2023/06/18 09:40:41;;;;;;;4.30;3.97;;;26.20;46.20;;;;;;5195292;28;20446;-45
2023/06/18 09:43:12;;;;;;;3.93;3.60;;;26.20;46.80;;;;;;5199568;28;20442;-44
2023/06/18 09:45:43;;;;;;;7.47;5.97;;;26.60;45.40;;;;;;5179326;28;20430;-45
2023/06/18 09:48:14;;;;;;;5.20;4.33;;;26.60;44.40;;;;;;5199875;28;20196;-45
2023/06/18 09:50:45;;;;;;;3.97;3.73;;;26.40;44.10;;;;;;5205545;28;20207;-45
2023/06/18 09:53:17;;;;;;;4.13;3.80;;;26.60;44.40;;;;;;5197131;28;20820;-44
2023/06/18 09:55:49;;;;;;;4.67;3.80;;;26.40;44.30;;;;;;5194452;28;20974;-45
2023/06/18 09:58:38;;;;;;;5.47;4.20;;;26.30;45.20;;;;;;5191161;28;20804;-44
2023/06/18 10:01:09;;;;;;;5.80;3.57;;;26.40;44.60;;;;;;5195153;28;21000;-45
2023/06/18 10:03:41;;;;;;;3.97;3.77;;;26.70;44.40;;;;;;5187127;28;20441;-46
2023/06/18 10:06:17;;;;;;;3.67;3.20;;;26.90;44.30;;;;;;5206299;28;20466;-45
2023/06/18 10:08:55;;;;;;;4.03;3.60;;;26.60;44.10;;;;;;5218129;28;20801;-45
2023/06/18 10:11:27;;;;;;;3.40;3.10;;;26.40;44.60;;;;;;5206988;28;20433;-45
2023/06/18 10:14:04;;;;;;;4.90;4.50;;;26.50;44.40;;;;;;5206787;28;20438;-43
2023/06/18 10:16:40;;;;;;;4.33;3.63;;;26.40;43.90;;;;;;5195939;28;21021;-45
2023/06/18 10:19:24;;;;;;;3.37;3.17;;;26.40;43.90;;;;;;5186167;28;20437;-44
2023/06/18 10:22:06;;;;;;;5.17;3.60;;;26.30;44.60;;;;;;5195503;28;20441;-43
2023/06/18 10:24:41;;;;;;;3.70;3.40;;;26.10;44.70;;;;;;5203272;28;20454;-44
2023/06/18 10:27:14;;;;;;;3.40;3.30;;;26.00;45.40;;;;;;5198009;28;20430;-44
2023/06/18 10:29:46;;;;;;;8.43;4.50;;;25.90;45.60;;;;;;5202055;28;20458;-45
2023/06/18 10:32:17;;;;;;;4.60;3.13;;;25.80;45.80;;;;;;5201122;28;20426;-45
2023/06/18 10:34:49;;;;;;;8.37;4.80;;;25.70;45.70;;;;;;5195800;28;20856;-45
2023/06/18 10:37:21;;;;;;;3.77;3.47;;;25.60;45.40;;;;;;5205723;28;20445;-45
2023/06/18 10:39:53;;;;;;;5.63;4.40;;;25.50;45.10;;;;;;5197397;28;20783;-44
2023/06/18 10:42:24;;;;;;;3.97;3.63;;;25.50;45.30;;;;;;5205553;28;20415;-45
2023/06/18 10:45:02;;;;;;;3.50;3.30;;;25.60;45.50;;;;;;5188770;28;20552;-44
2023/06/18 10:47:32;;;;;;;5.10;4.20;;;25.70;45.20;;;;;;5184859;28;20307;-45
2023/06/18 10:50:03;;;;;;;3.60;3.40;;;25.70;45.00;;;;;;5195426;28;20553;-44
2023/06/18 10:52:36;;;;;;;7.00;3.60;;;25.70;45.20;;;;;;5179512;28;20624;-44
2023/06/18 10:55:07;;;;;;;3.43;3.00;;;25.50;44.90;;;;;;5189783;28;20179;-46
2023/06/18 10:57:44;;;;;;;3.70;3.50;;;25.40;45.10;;;;;;5204275;28;20818;-45
2023/06/18 11:00:28;;;;;;;3.63;2.93;;;25.60;45.10;;;;;;5199777;28;20442;-45
2023/06/18 11:03:03;;;;;;;10.63;7.93;;;25.60;44.10;;;;;;5188070;28;20953;-44
2023/06/18 11:05:36;;;;;;;16.20;11.77;;;25.90;44.50;;;;;;5184369;28;20433;-44
2023/06/18 11:08:10;;;;;;;3.77;3.53;;;26.40;45.20;;;;;;5197072;28;20560;-44
2023/06/18 11:10:48;;;;;;;5.20;4.70;;;26.80;44.40;;;;;;5195537;28;20463;-45
2023/06/18 11:13:31;;;;;;;5.83;4.30;;;26.90;43.90;;;;;;5179481;28;20525;-45
2023/06/18 11:16:05;;;;;;;4.47;4.07;;;26.70;44.40;;;;;;5187525;28;20470;-44
2023/06/18 11:18:39;;;;;;;4.03;3.73;;;26.50;44.50;;;;;;5204517;28;20462;-47
2023/06/18 11:21:19;;;;;;;4.33;3.60;;;26.10;44.80;;;;;;5206209;28;20860;-45
2023/06/18 11:23:50;;;;;;;3.20;3.00;;;26.00;44.90;;;;;;5183419;28;20509;-45
2023/06/18 11:26:21;;;;;;;7.57;6.03;;;25.90;44.40;;;;;;5190171;28;20992;-45
2023/06/18 11:28:53;;;;;;;4.23;3.93;;;26.20;43.90;;;;;;5194967;28;20463;-44
2023/06/18 11:31:31;;;;;;;3.80;3.37;;;26.30;43.20;;;;;;5190533;28;20278;-46
2023/06/18 11:34:04;;;;;;;4.40;3.70;;;26.00;44.30;;;;;;5188650;28;20439;-44
2023/06/18 11:36:41;;;;;;;3.73;3.40;;;26.30;44.80;;;;;;5186601;28;20462;-43
2023/06/18 11:39:13;;;;;;;3.23;3.03;;;26.60;42.80;;;;;;5173969;28;20492;-44
2023/06/18 11:41:44;;;;;;;6.07;3.60;;;26.70;41.40;;;;;;5181778;28;20789;-45
2023/06/18 11:44:23;;;;;;;5.13;4.30;;;26.70;41.70;;;;;;5189647;28;20517;-45
2023/06/18 11:46:55;;;;;;;4.20;3.23;;;26.80;41.00;;;;;;5194567;28;20208;-45
2023/06/18 11:49:25;;;;;;;7.53;4.03;;;26.90;40.50;;;;;;5188409;28;20469;-45
2023/06/18 11:51:56;;;;;;;3.00;2.90;;;26.80;41.30;;;;;;5185959;28;20439;-45
2023/06/18 11:54:27;;;;;;;3.80;3.50;;;26.90;42.00;;;;;;5185008;28;20169;-45
2023/06/18 11:56:58;;;;;;;4.10;3.90;;;26.70;42.30;;;;;;5214509;28;20959;-44
2023/06/18 11:59:30;;;;;;;3.47;3.30;;;26.80;42.40;;;;;;5197887;28;20183;-45
2023/06/18 12:02:14;;;;;;;5.60;3.80;;;26.50;42.50;;;;;;5187036;28;20200;-45
2023/06/18 12:04:45;;;;;;;5.00;3.53;;;26.70;42.80;;;;;;5201371;28;20434;-45
2023/06/18 12:07:30;;;;;;;3.73;3.53;;;26.70;42.50;;;;;;5204482;28;20549;-44
2023/06/18 12:10:07;;;;;;;3.97;3.67;;;26.70;42.60;;;;;;5185339;28;20459;-45
2023/06/18 12:12:50;;;;;;;3.43;3.23;;;26.60;43.00;;;;;;5183598;28;20427;-45
2023/06/18 12:15:38;;;;;;;4.30;3.80;;;26.70;43.10;;;;;;5182165;28;20437;-45
2023/06/18 12:18:18;;;;;;;4.50;4.10;;;26.60;43.60;;;;;;5183313;28;20430;-45
2023/06/18 12:20:50;;;;;;;4.77;4.30;;;26.70;43.50;;;;;;5178907;28;20437;-46
2023/06/18 12:23:22;;;;;;;5.30;4.17;;;26.80;43.50;;;;;;5187352;28;20501;-44
2023/06/18 12:25:53;;;;;;;3.70;3.50;;;26.70;43.80;;;;;;5189124;28;20441;-45
2023/06/18 12:28:24;;;;;;;4.50;4.10;;;26.40;44.10;;;;;;5197518;28;20453;-45
2023/06/18 12:30:55;;;;;;;3.90;3.70;;;26.40;44.70;;;;;;5202445;28;20501;-45
2023/06/18 12:33:26;;;;;;;3.50;3.30;;;26.20;45.40;;;;;;5204246;28;20443;-45
2023/06/18 12:35:58;;;;;;;3.77;3.57;;;26.10;44.90;;;;;;5192654;28;20301;-45
2023/06/18 12:38:41;;;;;;;4.60;4.10;;;26.30;44.40;;;;;;5168095;28;20217;-45
2023/06/18 12:41:23;;;;;;;4.03;3.73;;;26.30;43.60;;;;;;5209573;28;20429;-45
2023/06/18 12:43:54;;;;;;;4.33;4.10;;;26.40;42.90;;;;;;5186296;28;21005;-44
2023/06/18 12:46:26;;;;;;;3.13;3.03;;;26.80;42.90;;;;;;5200447;28;20427;-44
2023/06/18 12:48:57;;;;;;;3.90;3.70;;;27.10;41.90;;;;;;5187861;28;20227;-43
2023/06/18 12:51:41;;;;;;;11.33;7.10;;;27.30;40.80;;;;;;5189111;28;20504;-45
2023/06/18 12:54:21;;;;;;;4.67;4.27;;;27.40;41.00;;;;;;5197893;28;20936;-45
2023/06/18 12:56:54;;;;;;;4.20;3.97;;;27.40;41.90;;;;;;5182757;28;20453;-45
2023/06/18 12:59:24;;;;;;;4.00;3.70;;;27.50;42.50;;;;;;5208976;28;20473;-45
2023/06/18 13:01:55;;;;;;;5.13;4.73;;;28.00;40.10;;;;;;5192243;28;20462;-44
2023/06/18 13:04:26;;;;;;;4.53;4.17;;;28.00;40.50;;;;;;5189590;28;20204;-45